Frio Chikuma — 3FWG8 — position and weather

sailwx.info

Track history (hours):
 
Tides and Currents Weather Stations Pressure Air Temp Water Temp Dewpoint Dewpoint Depression Visibility Wind Speed Wind Dir Waves Ship Positions

Frio Chikuma

Last reported at 2018-Jan-19 14:47 UTC. Time now 2018-Jan-22 08:48 UTC.
Position N 07°44' W 015°27'.

; draft 6.9 m.

Type: Cargo ship. MMSI: 353306000.

Date/timePositionNaut miles runAvg speedWind from/ knotsBaromVisibWave heightAir tempDewpointWater temp
2018-Jan-19 14:47N 07°44' W 015°27'414.5
2018-Jan-19 14:30N 07°46' W 015°30'1314.7
2018-Jan-19 13:36N 07°55' W 015°40'114.6
2018-Jan-19 13:30N 07°56' W 015°41'1614.4
2018-Jan-19 12:25N 08°06' W 015°54'614.4
2018-Jan-19 12:00N 08°10' W 015°58'714.4
2018-Jan-19 11:30N 08°14' W 016°04'714.4
2018-Jan-19 11:00N 08°19' W 016°09'714.4
2018-Jan-19 10:30N 08°24' W 016°15'714.4
2018-Jan-19 10:00N 08°28' W 016°21'714.3
2018-Jan-19 09:30N 08°32' W 016°26'1114.1
2018-Jan-19 08:44N 08°40' W 016°35'714.3
2018-Jan-19 08:15N 08°44' W 016°40'6214.0
2018-Jan-19 03:48N 09°24' W 017°28'414.1
2018-Jan-19 03:30N 09°26' W 017°32'714.1
2018-Jan-19 03:00N 09°31' W 017°37'714.2
2018-Jan-19 02:30N 09°36' W 017°42'  
Track history (hours):
 
Tides and Currents Weather Stations Pressure Air Temp Water Temp Dewpoint Dewpoint Depression Visibility Wind Speed Wind Dir Waves Ship Positions

Frio Chikuma

Last reported at 2018-Jan-19 14:47 UTC. Time now 2018-Jan-22 08:48 UTC.
Position N 07°44' W 015°27'.

; draft 6.9 m.

Type: Cargo ship. MMSI: 353306000.

Date/timePositionNaut miles runAvg speedWind from/ knotsBaromVisibWave heightAir tempDewpointWater temp
2018-Jan-19 14:47N 07°44' W 015°27'414.5
2018-Jan-19 14:30N 07°46' W 015°30'1314.7
2018-Jan-19 13:36N 07°55' W 015°40'114.6
2018-Jan-19 13:30N 07°56' W 015°41'1614.4
2018-Jan-19 12:25N 08°06' W 015°54'614.4
2018-Jan-19 12:00N 08°10' W 015°58'714.4
2018-Jan-19 11:30N 08°14' W 016°04'714.4
2018-Jan-19 11:00N 08°19' W 016°09'714.4
2018-Jan-19 10:30N 08°24' W 016°15'714.4
2018-Jan-19 10:00N 08°28' W 016°21'714.3
2018-Jan-19 09:30N 08°32' W 016°26'1114.1
2018-Jan-19 08:44N 08°40' W 016°35'714.3
2018-Jan-19 08:15N 08°44' W 016°40'6214.0
2018-Jan-19 03:48N 09°24' W 017°28'414.1
2018-Jan-19 03:30N 09°26' W 017°32'714.1
2018-Jan-19 03:00N 09°31' W 017°37'714.2
2018-Jan-19 02:30N 09°36' W 017°42'  

Dump ship's entire track history